createdAt,value
2017-11-04T00:01:23.387Z,70.75
2017-11-04T00:03:51.029Z,71.31
2017-11-04T00:06:18.814Z,70.69
2017-11-04T00:08:46.415Z,71.52
2017-11-04T00:11:14.048Z,70.93
2017-11-04T00:13:41.640Z,70.46
2017-11-04T00:16:09.242Z,71.48
2017-11-04T00:18:36.900Z,70.48
2017-11-04T00:21:04.710Z,70.37
2017-11-04T00:23:32.329Z,72.22
2017-11-04T00:26:00.058Z,70.36
2017-11-04T00:28:27.875Z,70.45
2017-11-04T00:30:55.570Z,72.08
2017-11-04T00:33:23.240Z,70.97
2017-11-04T00:35:51.385Z,70.84
2017-11-04T00:38:19.102Z,72.29
2017-11-04T00:40:46.665Z,72.50
2017-11-04T00:43:14.250Z,71.52
2017-11-04T00:45:41.851Z,72.14
2017-11-04T00:48:09.398Z,71.21
2017-11-04T00:50:37.162Z,71.26
2017-11-04T00:53:04.751Z,72.22
2017-11-04T00:55:32.438Z,72.51
2017-11-04T00:58:00.318Z,71.43
2017-11-04T01:00:27.964Z,71.40
2017-11-04T01:02:55.764Z,70.30
2017-11-04T01:05:23.386Z,70.61
2017-11-04T01:07:51.193Z,70.06
2017-11-04T01:10:18.819Z,70.33
2017-11-04T01:12:46.367Z,70.11
2017-11-04T01:15:14.024Z,69.70
2017-11-04T01:17:41.576Z,70.06
2017-11-04T01:20:09.164Z,69.48
2017-11-04T01:22:36.845Z,70.40
2017-11-04T01:25:04.457Z,71.33
2017-11-04T01:27:32.026Z,70.83
2017-11-04T01:29:59.687Z,69.80
2017-11-04T01:32:27.303Z,71.02
2017-11-04T01:34:55.073Z,71.37
2017-11-04T01:37:22.871Z,70.38
2017-11-04T01:39:50.561Z,70.80
2017-11-04T01:42:18.195Z,70.23
2017-11-04T01:44:45.777Z,70.27
2017-11-04T01:47:13.411Z,71.37
2017-11-04T01:49:41.043Z,71.11
2017-11-04T01:52:08.733Z,70.40
2017-11-04T01:54:36.406Z,70.17
2017-11-04T01:57:03.968Z,69.38
2017-11-04T01:59:31.559Z,70.49
2017-11-04T02:01:59.181Z,69.59
2017-11-04T02:04:26.792Z,70.58
2017-11-04T02:06:55.302Z,69.33
2017-11-04T02:09:22.922Z,69.69
2017-11-04T02:11:50.586Z,70.36
2017-11-04T02:14:18.357Z,69.74
2017-11-04T02:16:45.983Z,69.56
2017-11-04T02:19:13.529Z,70.10
2017-11-04T02:21:41.164Z,70.54
2017-11-04T02:24:08.787Z,70.16
2017-11-04T02:26:36.400Z,70.12
2017-11-04T02:29:04.007Z,70.52
2017-11-04T02:31:31.707Z,70.19
2017-11-04T02:33:59.351Z,70.83
2017-11-04T02:36:27.249Z,70.29
2017-11-04T02:38:54.916Z,69.24
2017-11-04T02:41:22.884Z,70.89
2017-11-04T02:43:50.524Z,70.52
2017-11-04T02:46:18.167Z,69.98
2017-11-04T02:48:45.729Z,70.41
2017-11-04T02:51:14.388Z,71.13
2017-11-04T02:53:42.006Z,69.90
2017-11-04T02:56:09.839Z,70.14
2017-11-04T02:58:37.484Z,69.45
2017-11-04T03:01:05.140Z,70.11
2017-11-04T03:03:32.754Z,70.17
2017-11-04T03:06:00.285Z,69.85
2017-11-04T03:08:27.922Z,70.48
2017-11-04T03:10:55.690Z,70.29
2017-11-04T03:13:23.258Z,70.95
2017-11-04T03:15:50.881Z,71.30
2017-11-04T03:18:19.104Z,70.36
2017-11-04T03:20:47.618Z,69.91
2017-11-04T03:23:15.653Z,70.85
2017-11-04T03:25:43.247Z,69.39
2017-11-04T03:28:10.884Z,69.69
2017-11-04T03:30:38.608Z,70.28
2017-11-04T03:33:06.182Z,69.56
2017-11-04T03:35:33.946Z,69.66
2017-11-04T03:38:01.581Z,69.78
2017-11-04T03:40:29.174Z,70.56
2017-11-04T03:42:56.756Z,69.86
2017-11-04T03:45:24.362Z,70.08
2017-11-04T03:47:51.964Z,68.87
2017-11-04T03:50:19.575Z,69.14
2017-11-04T03:52:47.199Z,70.38
2017-11-04T03:55:14.808Z,69.39
2017-11-04T03:57:42.405Z,69.99
2017-11-04T04:00:10.027Z,70.76
2017-11-04T04:02:37.668Z,70.42
2017-11-04T04:05:05.443Z,69.99
2017-11-04T04:07:33.102Z,69.88
2017-11-04T04:10:00.662Z,70.32
2017-11-04T04:12:28.425Z,70.72
2017-11-04T04:14:56.015Z,69.76
2017-11-04T04:17:23.662Z,69.79
2017-11-04T04:19:51.415Z,70.92
2017-11-04T04:22:19.011Z,70.34
2017-11-04T04:24:46.586Z,71.15
2017-11-04T04:27:14.168Z,71.05
2017-11-04T04:29:41.806Z,70.91
2017-11-04T04:32:10.227Z,71.52
2017-11-04T04:34:38.006Z,70.13
2017-11-04T04:37:05.790Z,70.89
2017-11-04T04:39:33.478Z,70.98
2017-11-04T04:42:01.089Z,71.46
2017-11-04T04:44:28.751Z,71.10
2017-11-04T04:46:56.457Z,70.14
2017-11-04T04:49:24.060Z,69.66
2017-11-04T04:51:52.693Z,70.14
2017-11-04T04:54:20.826Z,71.27
2017-11-04T04:56:48.431Z,70.71
2017-11-04T04:59:16.039Z,70.11
2017-11-04T05:01:43.898Z,70.09
2017-11-04T05:04:11.690Z,70.00
2017-11-04T05:06:39.447Z,69.50
2017-11-04T05:09:07.047Z,69.17
2017-11-04T05:11:34.642Z,69.49
2017-11-04T05:14:02.261Z,69.08
2017-11-04T05:16:29.898Z,69.75
2017-11-04T05:18:58.274Z,69.00
2017-11-04T05:21:25.859Z,70.02
2017-11-04T05:23:53.567Z,70.61
2017-11-04T05:26:21.438Z,69.79
2017-11-04T05:28:49.192Z,69.35
2017-11-04T05:31:16.813Z,70.20
2017-11-04T05:33:44.453Z,70.21
2017-11-04T05:36:12.398Z,68.96
2017-11-04T05:38:40.181Z,68.98
2017-11-04T05:41:07.790Z,69.55
2017-11-04T05:43:35.335Z,69.10
2017-11-04T05:46:03.188Z,68.93
2017-11-04T05:48:31.173Z,69.01
2017-11-04T05:50:58.808Z,69.06
2017-11-04T05:53:26.424Z,69.15
2017-11-04T05:55:54.167Z,69.16
2017-11-04T05:58:22.531Z,68.99
2017-11-04T06:00:50.195Z,68.82
2017-11-04T06:03:17.931Z,70.14
2017-11-04T06:05:45.722Z,68.98
2017-11-04T06:08:13.358Z,68.99
2017-11-04T06:10:41.753Z,68.66
2017-11-04T06:13:09.716Z,67.97
2017-11-04T06:15:37.467Z,67.50
2017-11-04T06:18:05.266Z,67.92
2017-11-04T06:20:32.940Z,68.01
2017-11-04T06:23:00.630Z,67.85
2017-11-04T06:25:29.014Z,69.09
2017-11-04T06:27:56.726Z,68.62
2017-11-04T06:30:24.486Z,69.65
2017-11-04T06:32:52.092Z,68.79
2017-11-04T06:35:19.714Z,69.25
2017-11-04T06:37:47.546Z,68.11
2017-11-04T06:40:15.189Z,68.54
2017-11-04T06:42:42.851Z,67.29
2017-11-04T06:45:10.470Z,64.88
2017-11-04T06:47:38.153Z,61.41
2017-11-04T06:50:06.700Z,59.16
2017-11-04T06:52:34.359Z,58.50
2017-11-04T06:55:01.963Z,56.21
2017-11-04T06:57:29.583Z,53.52
2017-11-04T06:59:57.721Z,53.97
2017-11-04T07:02:25.351Z,51.67
2017-11-04T07:04:53.039Z,51.08
2017-11-04T07:07:20.691Z,49.13
2017-11-04T07:09:48.370Z,49.51
2017-11-04T07:12:16.219Z,49.23
2017-11-04T07:14:43.770Z,47.70
2017-11-04T07:17:11.488Z,47.53
2017-11-04T07:19:39.200Z,44.69
2017-11-04T07:22:06.787Z,43.79
2017-11-04T07:24:34.435Z,43.60
2017-11-04T07:27:02.062Z,43.09
2017-11-04T07:29:29.705Z,44.13
2017-11-04T07:31:57.335Z,39.40
2017-11-04T07:34:24.948Z,43.74
2017-11-04T07:36:52.879Z,42.68
2017-11-04T07:39:20.506Z,39.91
2017-11-04T07:41:48.407Z,35.75
2017-11-04T07:44:16.064Z,38.01
2017-11-04T07:46:43.725Z,38.99
2017-11-04T07:49:11.310Z,36.58
2017-11-04T07:51:38.911Z,37.31
2017-11-04T07:54:06.593Z,35.82
2017-11-04T07:56:35.531Z,36.18
2017-11-04T07:59:03.914Z,35.31
2017-11-04T08:01:31.606Z,35.81
2017-11-04T08:03:59.232Z,36.53
2017-11-04T08:06:26.852Z,37.76
2017-11-04T08:08:54.544Z,38.50
2017-11-04T08:11:23.065Z,38.08
2017-11-04T08:13:50.714Z,40.41
2017-11-04T08:16:19.151Z,40.89
2017-11-04T08:18:46.753Z,40.24
2017-11-04T08:21:14.392Z,41.50
2017-11-04T08:23:42.019Z,42.92
2017-11-04T08:26:09.697Z,41.74
2017-11-04T08:28:37.906Z,41.55
2017-11-04T08:31:05.690Z,41.33
2017-11-04T08:33:33.266Z,41.51
2017-11-04T08:36:00.861Z,42.27
2017-11-04T08:38:28.530Z,41.54
2017-11-04T08:40:56.179Z,39.27
2017-11-04T08:43:23.802Z,37.86
2017-11-04T08:45:51.450Z,36.74
2017-11-04T08:48:19.056Z,34.81
2017-11-04T08:50:46.667Z,33.90
2017-11-04T08:53:14.281Z,35.17
2017-11-04T08:55:42.010Z,35.72
2017-11-04T08:58:09.601Z,35.00
2017-11-04T09:00:37.914Z,34.62
2017-11-04T09:03:06.359Z,36.04
2017-11-04T09:05:33.968Z,33.81
2017-11-04T09:08:01.701Z,32.63
2017-11-04T09:10:29.477Z,33.73
2017-11-04T09:12:57.118Z,30.43
2017-11-04T09:15:25.744Z,30.94
2017-11-04T09:17:53.727Z,31.86
2017-11-04T09:20:22.388Z,31.76
2017-11-04T09:22:50.188Z,31.85
2017-11-04T09:25:17.783Z,31.24
2017-11-04T09:27:45.423Z,32.61
2017-11-04T09:30:13.100Z,32.85
2017-11-04T09:32:41.064Z,30.93
2017-11-04T09:35:08.914Z,31.92
2017-11-04T09:37:36.924Z,34.03
2017-11-04T09:40:04.504Z,34.94
2017-11-04T09:42:32.164Z,35.92
2017-11-04T09:44:59.853Z,35.48
2017-11-04T09:47:27.466Z,35.54
2017-11-04T09:49:55.062Z,38.58
2017-11-04T09:52:22.787Z,36.92
2017-11-04T09:54:50.401Z,38.71
2017-11-04T09:57:18.001Z,39.31
2017-11-04T09:59:45.618Z,40.97
2017-11-04T10:02:13.270Z,42.39
2017-11-04T10:04:40.871Z,41.96
2017-11-04T10:07:08.523Z,41.70
2017-11-04T10:09:36.202Z,40.85
2017-11-04T10:12:03.865Z,41.02
2017-11-04T10:14:31.530Z,39.95
2017-11-04T10:16:59.165Z,41.76
2017-11-04T10:19:26.779Z,44.24
2017-11-04T10:21:54.403Z,44.51
2017-11-04T10:24:22.003Z,45.12
2017-11-04T10:26:49.751Z,45.09
2017-11-04T10:29:17.586Z,44.86
2017-11-04T10:31:45.598Z,46.69
2017-11-04T10:34:13.263Z,44.32
2017-11-04T10:36:41.558Z,44.84
2017-11-04T10:39:09.598Z,44.83
2017-11-04T10:41:37.253Z,44.58
2017-11-04T10:44:04.856Z,44.88
2017-11-04T10:46:32.552Z,45.06
2017-11-04T10:49:00.370Z,45.72
2017-11-04T10:51:27.984Z,44.95
2017-11-04T10:53:55.672Z,44.37
2017-11-04T10:56:23.338Z,43.94
2017-11-04T10:58:50.983Z,42.78
2017-11-04T11:01:18.622Z,42.97
2017-11-04T11:03:46.465Z,43.44
2017-11-04T11:06:14.133Z,42.79
2017-11-04T11:08:41.788Z,41.75
2017-11-04T11:11:10.516Z,40.82
2017-11-04T11:13:38.303Z,40.24
2017-11-04T11:16:06.127Z,38.72
2017-11-04T11:18:33.757Z,39.33
2017-11-04T11:21:01.377Z,39.26
2017-11-04T11:23:29.236Z,39.49
2017-11-04T11:25:56.844Z,39.25
2017-11-04T11:28:24.642Z,38.41
2017-11-04T11:30:52.337Z,38.26
2017-11-04T11:33:20.467Z,40.63
2017-11-04T11:35:48.258Z,44.58
2017-11-04T11:38:16.038Z,37.40
2017-11-04T11:40:43.699Z,37.67
2017-11-04T11:43:11.713Z,36.85
2017-11-04T11:45:39.612Z,36.91
2017-11-04T11:48:07.425Z,37.32
2017-11-04T11:50:35.150Z,37.77
2017-11-04T11:53:02.859Z,38.30
2017-11-04T11:55:33.328Z,38.72
2017-11-04T12:01:31.781Z,38.72
2017-11-04T12:03:59.548Z,38.51
2017-11-04T12:06:27.185Z,38.49
2017-11-04T12:08:54.805Z,38.23
2017-11-04T12:11:22.428Z,37.71
2017-11-04T12:13:49.959Z,37.92
2017-11-04T12:16:18.186Z,37.53
2017-11-04T12:18:45.729Z,38.23
2017-11-04T12:21:13.355Z,37.27
2017-11-04T12:23:41.187Z,37.18
2017-11-04T12:26:08.738Z,37.64
2017-11-04T12:28:36.486Z,38.42
2017-11-04T12:31:04.230Z,38.07
2017-11-04T12:33:31.843Z,38.83
2017-11-04T12:35:59.502Z,38.20
2017-11-04T12:38:27.154Z,38.51
2017-11-04T12:40:54.940Z,38.13
2017-11-04T12:43:22.778Z,37.69
2017-11-04T12:45:50.372Z,37.73
2017-11-04T12:48:17.947Z,37.80
2017-11-04T12:50:45.722Z,37.41
2017-11-04T12:53:13.435Z,37.22
2017-11-04T12:55:41.043Z,37.36
2017-11-04T12:58:08.803Z,37.46
2017-11-04T13:00:36.414Z,37.89
2017-11-04T13:03:04.080Z,37.69
2017-11-04T13:05:31.678Z,37.29
2017-11-04T13:07:59.482Z,37.15
2017-11-04T13:10:27.096Z,36.46
2017-11-04T13:12:54.756Z,36.76
2017-11-04T13:15:22.422Z,36.57
2017-11-04T13:17:50.215Z,36.05
2017-11-04T13:20:18.010Z,35.19
2017-11-04T13:22:46.120Z,34.82
2017-11-04T13:25:13.720Z,35.66
2017-11-04T13:27:41.540Z,36.24
2017-11-04T13:30:09.811Z,37.21
2017-11-04T13:32:37.695Z,37.84
2017-11-04T13:35:05.311Z,38.41
2017-11-04T13:37:33.979Z,38.66
2017-11-04T13:40:02.362Z,38.69
2017-11-04T13:42:29.955Z,39.07
2017-11-04T13:44:58.058Z,39.25
2017-11-04T13:47:25.763Z,39.42
2017-11-04T13:49:53.705Z,39.96
2017-11-04T13:52:21.309Z,40.48
2017-11-04T13:54:49.572Z,40.57
2017-11-04T13:57:17.429Z,40.99
2017-11-04T13:59:45.050Z,41.40
2017-11-04T14:02:12.734Z,41.51
2017-11-04T14:04:40.540Z,41.33
2017-11-04T14:07:08.167Z,41.44
2017-11-04T14:09:35.795Z,41.79
2017-11-04T14:12:03.401Z,42.41
2017-11-04T14:14:31.026Z,42.49
2017-11-04T14:16:58.640Z,41.67
2017-11-04T14:19:27.032Z,43.71
2017-11-04T14:21:54.830Z,43.98
2017-11-04T14:24:22.621Z,44.29
2017-11-04T14:26:51.078Z,44.22
2017-11-04T14:29:18.825Z,44.27
2017-11-04T14:31:46.441Z,44.65
2017-11-04T14:34:14.115Z,45.18
2017-11-04T14:36:41.762Z,45.50
2017-11-04T14:39:09.568Z,45.66
2017-11-04T14:41:37.463Z,46.33
2017-11-04T14:44:05.128Z,45.82
2017-11-04T14:46:33.697Z,46.93
2017-11-04T14:49:01.270Z,47.34
2017-11-04T14:51:28.910Z,47.57
2017-11-04T14:53:56.777Z,47.31
2017-11-04T14:56:24.378Z,48.22
2017-11-04T14:58:52.164Z,48.32
2017-11-04T15:01:19.795Z,48.54
2017-11-04T15:03:47.782Z,48.33
2017-11-04T15:06:15.482Z,48.72
2017-11-04T15:08:43.231Z,47.33
2017-11-04T15:11:10.795Z,48.26
2017-11-04T15:13:38.513Z,50.44
2017-11-04T15:16:06.160Z,49.93
2017-11-04T15:18:33.867Z,50.61
2017-11-04T15:21:01.547Z,49.44
2017-11-04T15:23:29.234Z,49.95
2017-11-04T15:25:56.982Z,51.83
2017-11-04T15:28:24.641Z,57.25
2017-11-04T15:30:52.210Z,53.82
2017-11-04T15:33:20.025Z,51.28
2017-11-04T15:35:47.611Z,52.15
2017-11-04T15:38:15.311Z,52.18
2017-11-04T15:40:42.865Z,54.16
2017-11-04T15:43:10.608Z,53.67
2017-11-04T15:45:38.824Z,53.84
2017-11-04T15:48:06.381Z,54.08
2017-11-04T15:50:34.086Z,53.43
2017-11-04T15:53:01.755Z,53.81
2017-11-04T15:55:29.347Z,53.25
2017-11-04T15:57:56.987Z,54.74
2017-11-04T16:00:25.007Z,53.72
2017-11-04T16:02:52.770Z,54.55
2017-11-04T16:05:20.562Z,54.07
2017-11-04T16:07:48.231Z,54.37
2017-11-04T16:10:16.491Z,53.94
2017-11-04T16:12:44.320Z,55.20
2017-11-04T16:15:11.991Z,57.46
2017-11-04T16:17:39.832Z,56.61
2017-11-04T16:20:07.611Z,57.30
2017-11-04T16:22:35.251Z,57.51
2017-11-04T16:25:02.829Z,59.51
2017-11-04T16:27:30.457Z,59.29
2017-11-04T16:29:58.202Z,57.43
2017-11-04T16:32:26.636Z,58.69
2017-11-04T16:34:54.223Z,59.33
2017-11-04T16:37:22.070Z,59.40
2017-11-04T16:39:49.685Z,59.67
2017-11-04T16:42:17.274Z,59.20
2017-11-04T16:44:44.990Z,58.99
2017-11-04T16:47:12.591Z,58.43
2017-11-04T16:49:40.238Z,58.24
2017-11-04T16:52:07.883Z,58.82
2017-11-04T16:54:35.499Z,59.47
2017-11-04T16:57:03.114Z,59.55
2017-11-04T16:59:30.870Z,61.11
2017-11-04T17:01:58.517Z,62.18
2017-11-04T17:04:26.124Z,62.07
2017-11-04T17:06:53.745Z,61.47
2017-11-04T17:09:21.427Z,61.23
2017-11-04T17:11:49.275Z,61.60
2017-11-04T17:14:16.880Z,61.72
2017-11-04T17:16:44.587Z,62.13
2017-11-04T17:19:12.137Z,62.42
2017-11-04T17:21:39.791Z,62.08
2017-11-04T17:24:07.433Z,60.82
2017-11-04T17:26:35.099Z,60.76
2017-11-04T17:29:02.750Z,60.82
2017-11-04T17:31:30.398Z,61.55
2017-11-04T17:33:58.150Z,62.24
2017-11-04T17:36:25.818Z,60.83
2017-11-04T17:38:53.866Z,59.93
2017-11-04T17:41:22.567Z,59.57
2017-11-04T17:43:50.214Z,61.52
2017-11-04T17:46:17.950Z,62.89
2017-11-04T17:48:45.633Z,61.75
2017-11-04T17:51:13.280Z,62.18
2017-11-04T17:53:40.925Z,60.53
2017-11-04T17:56:08.551Z,60.40
2017-11-04T17:58:36.143Z,60.15
2017-11-04T18:01:03.774Z,61.03
2017-11-04T18:03:31.544Z,61.91
2017-11-04T18:05:59.266Z,61.38
2017-11-04T18:08:27.019Z,61.49
2017-11-04T18:10:54.581Z,61.82
2017-11-04T18:13:22.957Z,60.15
2017-11-04T18:15:50.607Z,61.74
2017-11-04T18:18:19.030Z,60.04
2017-11-04T18:20:46.737Z,61.53
2017-11-04T18:23:14.943Z,61.95
2017-11-04T18:25:42.581Z,61.87
2017-11-04T18:28:10.210Z,62.64
2017-11-04T18:30:37.815Z,62.98
2017-11-04T18:33:05.424Z,62.94
2017-11-04T18:35:33.087Z,63.04
2017-11-04T18:38:00.715Z,63.07
2017-11-04T18:40:28.574Z,63.08
2017-11-04T18:42:56.250Z,62.94
2017-11-04T18:45:24.044Z,62.42
2017-11-04T18:47:51.743Z,61.67
2017-11-04T18:50:19.404Z,61.56
2017-11-04T18:52:47.086Z,61.28
2017-11-04T18:55:14.746Z,60.86
2017-11-04T18:57:42.330Z,60.84
2017-11-04T19:00:10.564Z,61.37
2017-11-04T19:02:38.189Z,62.66
2017-11-04T19:05:06.065Z,63.62
2017-11-04T19:07:33.928Z,64.11
2017-11-04T19:10:01.751Z,63.99
2017-11-04T19:12:29.403Z,64.51
2017-11-04T19:14:57.932Z,64.34
2017-11-04T19:17:25.622Z,64.20
2017-11-04T19:19:53.556Z,62.57
2017-11-04T19:22:21.218Z,62.02
2017-11-04T19:24:48.988Z,62.94
2017-11-04T19:27:16.606Z,63.92
2017-11-04T19:29:44.217Z,62.65
2017-11-04T19:32:11.918Z,64.53
2017-11-04T19:34:39.484Z,63.96
2017-11-04T19:37:07.054Z,62.95
2017-11-04T19:39:34.689Z,63.28
2017-11-04T19:42:02.279Z,63.22
2017-11-04T19:44:29.946Z,63.03
2017-11-04T19:46:57.659Z,63.71
2017-11-04T19:49:25.385Z,65.09
2017-11-04T19:51:53.215Z,65.90
2017-11-04T19:54:20.864Z,66.56
2017-11-04T19:56:49.087Z,66.61
2017-11-04T19:59:16.757Z,66.50
2017-11-04T20:01:44.387Z,66.20
2017-11-04T20:04:11.989Z,66.78
2017-11-04T20:06:39.669Z,66.33
2017-11-04T20:09:07.335Z,66.58
2017-11-04T20:11:35.238Z,65.00
2017-11-04T20:14:03.224Z,64.61
2017-11-04T20:16:30.841Z,64.32
2017-11-04T20:18:58.434Z,65.44
2017-11-04T20:21:26.115Z,63.90
2017-11-04T20:23:55.059Z,64.02
2017-11-04T20:26:22.694Z,64.80
2017-11-04T20:28:50.267Z,64.46
2017-11-04T20:31:17.919Z,65.01
2017-11-04T20:33:46.027Z,64.82
2017-11-04T20:36:13.948Z,63.73
2017-11-04T20:38:41.649Z,65.29
2017-11-04T20:41:09.274Z,65.96
2017-11-04T20:43:37.865Z,65.92
2017-11-04T20:46:05.731Z,65.81
2017-11-04T20:48:33.283Z,65.06
2017-11-04T20:51:00.963Z,64.15
2017-11-04T20:53:28.553Z,63.98
2017-11-04T20:55:56.312Z,63.71
2017-11-04T20:58:24.098Z,65.12
2017-11-04T21:00:51.893Z,64.37
2017-11-04T21:03:19.524Z,63.82
2017-11-04T21:05:47.363Z,65.47
2017-11-04T21:08:15.432Z,64.44
2017-11-04T21:10:43.409Z,65.28
2017-11-04T21:13:11.059Z,65.31
2017-11-04T21:15:38.694Z,64.33
2017-11-04T21:18:06.488Z,66.20
2017-11-04T21:20:34.315Z,65.10
2017-11-04T21:23:03.036Z,64.91
2017-11-04T21:25:30.856Z,65.91
2017-11-04T21:27:58.574Z,65.01
2017-11-04T21:30:26.282Z,64.87
2017-11-04T21:32:53.816Z,66.82
2017-11-04T21:35:21.424Z,67.77
2017-11-04T21:37:49.131Z,68.17
2017-11-04T21:40:16.808Z,69.68
2017-11-04T21:42:44.405Z,68.12
2017-11-04T21:45:12.107Z,67.19
2017-11-04T21:47:39.710Z,67.27
2017-11-04T21:50:15.651Z,66.13
2017-11-04T21:52:47.876Z,65.67
2017-11-04T21:55:18.104Z,66.78
2017-11-04T21:57:46.265Z,65.95
2017-11-04T22:00:13.991Z,66.76
2017-11-04T22:02:41.953Z,66.98
2017-11-04T22:05:09.810Z,67.23
2017-11-04T22:07:37.466Z,64.58
2017-11-04T22:10:05.091Z,65.36
2017-11-04T22:12:32.702Z,66.74
2017-11-04T22:15:00.309Z,68.07
2017-11-04T22:17:27.930Z,68.93
2017-11-04T22:19:55.545Z,67.60
2017-11-04T22:22:23.229Z,67.10
2017-11-04T22:24:50.901Z,68.32
2017-11-04T22:27:18.553Z,66.90
2017-11-04T22:29:46.235Z,66.67
2017-11-04T22:32:13.860Z,66.84
2017-11-04T22:34:41.494Z,65.71
2017-11-04T22:37:09.155Z,64.99
2017-11-04T22:39:36.837Z,66.26
2017-11-04T22:42:04.635Z,67.76
2017-11-04T22:44:32.447Z,67.78
2017-11-04T22:47:00.044Z,67.42
2017-11-04T22:49:27.656Z,68.10
2017-11-04T22:51:55.517Z,67.22
2017-11-04T22:54:23.196Z,68.01
2017-11-04T22:56:51.035Z,68.86
2017-11-04T22:59:18.621Z,67.12
2017-11-04T23:01:46.319Z,66.65
2017-11-04T23:04:13.900Z,67.16
2017-11-04T23:06:41.733Z,66.92
2017-11-04T23:09:09.372Z,67.95
2017-11-04T23:11:36.954Z,67.34
2017-11-04T23:14:04.592Z,66.28
2017-11-04T23:16:32.290Z,66.88
2017-11-04T23:18:59.960Z,67.83
2017-11-04T23:21:27.531Z,68.18
2017-11-04T23:23:55.160Z,66.81
2017-11-04T23:26:23.004Z,66.81
2017-11-04T23:28:50.616Z,66.57
2017-11-04T23:31:18.285Z,67.18
2017-11-04T23:33:45.957Z,66.96
2017-11-04T23:36:13.582Z,65.85
2017-11-04T23:38:41.222Z,66.14
2017-11-04T23:41:09.778Z,65.63
2017-11-04T23:43:37.487Z,67.47
2017-11-04T23:46:05.135Z,67.74
2017-11-04T23:48:32.975Z,67.40
2017-11-04T23:51:00.641Z,67.13
2017-11-04T23:53:28.295Z,66.82
2017-11-04T23:55:55.966Z,66.97
2017-11-04T23:58:23.621Z,67.88
